createdAt,value
2023-03-10T00:01:31.804Z,95.40
2023-03-10T00:04:01.081Z,95.40
2023-03-10T00:06:34.399Z,95.40
2023-03-10T00:09:01.878Z,95.40
2023-03-10T00:11:28.753Z,95.40
2023-03-10T00:13:55.630Z,95.40
2023-03-10T00:16:27.478Z,95.40
2023-03-10T00:18:55.674Z,95.40
2023-03-10T00:21:26.330Z,95.40
2023-03-10T00:23:54.029Z,95.40
2023-03-10T00:26:22.139Z,95.40
2023-03-10T00:28:49.724Z,95.40
2023-03-10T00:31:23.643Z,95.40
2023-03-10T00:33:52.183Z,95.40
2023-03-10T00:36:22.830Z,95.50
2023-03-10T00:38:51.104Z,95.40
2023-03-10T00:41:22.691Z,95.40
2023-03-10T00:43:50.047Z,95.50
2023-03-10T00:46:17.509Z,95.50
2023-03-10T00:48:44.606Z,95.50
2023-03-10T00:51:12.202Z,95.50
2023-03-10T00:53:40.719Z,95.50
2023-03-10T00:56:12.880Z,95.50
2023-03-10T00:58:40.389Z,95.60
2023-03-10T01:01:34.509Z,95.60
2023-03-10T01:04:10.181Z,95.60
2023-03-10T01:06:37.151Z,95.60
2023-03-10T01:09:04.997Z,95.50
2023-03-10T01:11:32.720Z,95.50
2023-03-10T01:14:03.266Z,95.60
2023-03-10T01:16:30.597Z,95.60
2023-03-10T01:18:58.814Z,95.50
2023-03-10T01:21:34.110Z,95.60
2023-03-10T01:24:02.458Z,95.60
2023-03-10T01:26:30.639Z,95.60
2023-03-10T01:28:57.980Z,95.60
2023-03-10T01:31:25.007Z,95.60
2023-03-10T01:33:51.975Z,95.70
2023-03-10T01:36:25.760Z,95.60
2023-03-10T01:38:54.602Z,95.70
2023-03-10T01:41:22.415Z,95.70
2023-03-10T01:43:52.414Z,95.80
2023-03-10T01:46:31.270Z,95.80
2023-03-10T01:49:15.500Z,95.70
2023-03-10T01:51:47.921Z,95.80
2023-03-10T01:54:23.080Z,95.80
2023-03-10T01:56:52.375Z,95.70
2023-03-10T01:59:21.054Z,95.80
2023-03-10T02:01:50.534Z,95.80
2023-03-10T02:04:30.212Z,95.90
2023-03-10T02:06:57.438Z,95.70
2023-03-10T02:09:25.600Z,95.70
2023-03-10T02:11:53.085Z,95.80
2023-03-10T02:14:20.145Z,95.80
2023-03-10T02:16:47.333Z,95.80
2023-03-10T02:19:35.846Z,95.80
2023-03-10T02:22:07.441Z,95.90
2023-03-10T02:25:09.513Z,96.00
2023-03-10T02:27:39.377Z,96.00
2023-03-10T02:30:10.007Z,96.00
2023-03-10T02:32:46.217Z,96.10
2023-03-10T02:35:13.429Z,96.40
2023-03-10T02:37:50.797Z,96.20
2023-03-10T02:40:43.832Z,96.20
2023-03-10T02:43:23.990Z,96.20
2023-03-10T02:46:01.213Z,96.30
2023-03-10T02:48:36.894Z,96.30
2023-03-10T02:51:14.047Z,96.30
2023-03-10T02:53:41.400Z,96.20
2023-03-10T02:56:08.351Z,96.30
2023-03-10T02:58:37.185Z,96.20
2023-03-10T03:01:07.464Z,96.20
2023-03-10T03:03:39.222Z,96.30
2023-03-10T03:06:07.457Z,96.20
2023-03-10T03:08:34.729Z,96.20
2023-03-10T03:11:03.878Z,96.10
2023-03-10T03:13:31.485Z,96.20
2023-03-10T03:16:00.194Z,96.10
2023-03-10T03:18:27.172Z,96.20
2023-03-10T03:20:54.484Z,96.10
2023-03-10T03:23:21.461Z,96.10
2023-03-10T03:25:49.467Z,96.20
2023-03-10T03:28:19.069Z,96.20
2023-03-10T03:30:49.163Z,96.20
2023-03-10T03:33:16.126Z,96.20
2023-03-10T03:35:45.120Z,96.20
2023-03-10T03:38:13.476Z,96.30
2023-03-10T03:40:41.977Z,96.30
2023-03-10T03:43:12.647Z,96.30
2023-03-10T03:45:39.869Z,96.40
2023-03-10T03:48:06.827Z,96.40
2023-03-10T03:50:36.060Z,96.40
2023-03-10T03:53:09.446Z,96.30
2023-03-10T03:55:36.373Z,96.60
2023-03-10T03:58:03.419Z,96.40
2023-03-10T04:00:30.435Z,96.30
2023-03-10T04:03:03.833Z,96.30
2023-03-10T04:05:32.849Z,96.30
2023-03-10T04:08:00.553Z,96.20
2023-03-10T04:10:29.348Z,96.10
2023-03-10T04:12:57.110Z,96.20
2023-03-10T04:15:25.042Z,96.20
2023-03-10T04:17:52.165Z,96.00
2023-03-10T04:20:19.242Z,96.00
2023-03-10T04:22:49.499Z,96.10
2023-03-10T04:25:17.834Z,96.00
2023-03-10T04:27:45.671Z,96.10
2023-03-10T04:30:14.818Z,96.10
2023-03-10T04:32:47.867Z,96.10
2023-03-10T04:35:16.310Z,96.10
2023-03-10T04:37:44.858Z,96.00
2023-03-10T04:40:14.237Z,96.00
2023-03-10T04:42:42.409Z,96.10
2023-03-10T04:45:10.606Z,96.20
2023-03-10T04:47:40.440Z,96.10
2023-03-10T04:50:08.256Z,96.00
2023-03-10T04:52:35.583Z,96.00
2023-03-10T04:55:02.874Z,96.00
2023-03-10T04:57:30.411Z,96.00
2023-03-10T04:59:57.460Z,95.90
2023-03-10T05:02:25.092Z,95.90
2023-03-10T05:04:52.849Z,95.90
2023-03-10T05:07:21.368Z,95.90
2023-03-10T05:09:49.928Z,95.90
2023-03-10T05:12:16.976Z,96.00
2023-03-10T05:14:44.113Z,96.00
2023-03-10T05:17:11.968Z,96.00
2023-03-10T05:19:39.498Z,95.90
2023-03-10T05:22:08.001Z,95.90
2023-03-10T05:24:37.186Z,95.90
2023-03-10T05:27:04.619Z,95.90
2023-03-10T05:29:32.254Z,95.90
2023-03-10T05:32:07.391Z,95.80
2023-03-10T05:34:38.037Z,95.90
2023-03-10T05:37:05.155Z,95.90
2023-03-10T05:39:32.187Z,95.90
2023-03-10T05:42:03.138Z,96.00
2023-03-10T05:44:33.167Z,96.10
2023-03-10T05:47:02.137Z,96.00
2023-03-10T05:49:30.878Z,96.00
2023-03-10T05:51:58.968Z,96.00
2023-03-10T05:54:26.398Z,96.00
2023-03-10T05:56:53.485Z,96.10
2023-03-10T05:59:23.533Z,96.10
2023-03-10T06:01:52.069Z,96.10
2023-03-10T06:04:19.289Z,96.10
2023-03-10T06:06:46.190Z,96.10
2023-03-10T06:09:13.099Z,96.00
2023-03-10T06:11:40.041Z,96.10
2023-03-10T06:14:06.931Z,96.10
2023-03-10T06:16:33.844Z,96.10
2023-03-10T06:19:00.757Z,96.00
2023-03-10T06:21:29.420Z,96.10
2023-03-10T06:23:56.520Z,96.10
2023-03-10T06:26:24.283Z,96.10
2023-03-10T06:28:51.327Z,96.00
2023-03-10T06:31:23.346Z,96.00
2023-03-10T06:33:50.901Z,96.00
2023-03-10T06:36:18.953Z,96.00
2023-03-10T06:38:46.352Z,96.00
2023-03-10T06:41:13.630Z,96.00
2023-03-10T06:43:40.780Z,96.00
2023-03-10T06:46:10.175Z,96.10
2023-03-10T06:48:39.026Z,96.10
2023-03-10T06:51:13.260Z,96.00
2023-03-10T06:53:40.489Z,96.00
2023-03-10T06:56:12.232Z,96.00
2023-03-10T06:58:39.763Z,96.00
2023-03-10T07:01:08.007Z,95.90
2023-03-10T07:03:36.236Z,95.80
2023-03-10T07:06:03.108Z,95.80
2023-03-10T07:08:30.367Z,95.80
2023-03-10T07:10:57.668Z,95.70
2023-03-10T07:13:24.914Z,95.70
2023-03-10T07:15:52.041Z,95.70
2023-03-10T07:18:19.249Z,95.60
2023-03-10T07:20:48.167Z,95.70
2023-03-10T07:23:15.340Z,95.70
2023-03-10T07:25:42.345Z,95.70
2023-03-10T07:28:09.240Z,95.70
2023-03-10T07:30:36.644Z,95.70
2023-03-10T07:33:04.297Z,95.70
2023-03-10T07:35:31.232Z,95.70
2023-03-10T07:37:58.112Z,95.80
2023-03-10T07:40:25.196Z,95.70
2023-03-10T07:42:54.696Z,95.70
2023-03-10T07:45:24.507Z,95.70
2023-03-10T07:47:53.027Z,95.70
2023-03-10T07:50:21.258Z,95.80
2023-03-10T07:52:48.443Z,95.70
2023-03-10T07:55:15.309Z,95.70
2023-03-10T07:57:42.187Z,95.70
2023-03-10T08:00:10.390Z,95.70
2023-03-10T08:02:40.950Z,95.60
2023-03-10T08:05:10.104Z,95.60
2023-03-10T08:07:38.018Z,95.50
2023-03-10T08:10:06.217Z,95.50
2023-03-10T08:12:34.830Z,95.50
2023-03-10T08:15:01.924Z,95.50
2023-03-10T08:17:30.941Z,95.50
2023-03-10T08:19:58.708Z,95.50
2023-03-10T08:22:26.509Z,95.50
2023-03-10T08:24:53.872Z,95.50
2023-03-10T08:27:21.645Z,95.40
2023-03-10T08:29:48.541Z,95.40
2023-03-10T08:32:15.631Z,95.40
2023-03-10T08:34:43.141Z,95.40
2023-03-10T08:37:10.938Z,95.40
2023-03-10T08:39:38.020Z,95.30
2023-03-10T08:42:05.023Z,95.20
2023-03-10T08:44:31.934Z,95.10
2023-03-10T08:46:59.032Z,95.10
2023-03-10T08:49:26.117Z,95.20
2023-03-10T08:51:53.026Z,95.10
2023-03-10T08:54:22.177Z,95.10
2023-03-10T08:56:49.849Z,95.20
2023-03-10T08:59:16.833Z,95.30
2023-03-10T09:01:43.801Z,95.30
2023-03-10T09:04:10.999Z,95.30
2023-03-10T09:06:38.655Z,95.40
2023-03-10T09:09:08.347Z,95.80
2023-03-10T09:11:39.147Z,95.40
2023-03-10T09:14:07.767Z,95.40
2023-03-10T09:16:34.753Z,95.50
2023-03-10T09:19:02.392Z,95.40
2023-03-10T09:21:33.615Z,95.50
2023-03-10T09:24:01.562Z,95.50
2023-03-10T09:26:28.497Z,95.50
2023-03-10T09:28:57.059Z,95.30
2023-03-10T09:31:33.080Z,95.30
2023-03-10T09:34:00.304Z,95.30
2023-03-10T09:36:27.297Z,95.10
2023-03-10T09:38:54.280Z,95.10
2023-03-10T09:41:56.777Z,95.10
2023-03-10T09:44:51.277Z,94.90
2023-03-10T09:47:38.587Z,94.90
2023-03-10T09:50:33.726Z,94.90
2023-03-10T09:53:37.898Z,94.80
2023-03-10T09:56:15.946Z,94.80
2023-03-10T09:59:08.069Z,94.90
2023-03-10T10:01:35.367Z,94.40
2023-03-10T10:04:36.798Z,94.30
2023-03-10T10:07:15.587Z,94.50
2023-03-10T10:10:04.461Z,94.20
2023-03-10T10:12:32.783Z,94.30
2023-03-10T10:15:14.696Z,94.10
2023-03-10T10:18:33.519Z,93.70
2023-03-10T10:21:14.357Z,93.70
2023-03-10T10:23:47.675Z,93.80
2023-03-10T10:26:18.819Z,93.70
2023-03-10T10:28:54.375Z,93.50
2023-03-10T10:31:25.850Z,93.40
2023-03-10T10:34:22.744Z,93.20
2023-03-10T10:36:56.956Z,93.20
2023-03-10T10:39:40.727Z,93.10
2023-03-10T10:42:33.148Z,92.90
2023-03-10T10:45:04.371Z,92.90
2023-03-10T10:47:35.741Z,92.70
2023-03-10T10:50:18.009Z,92.70
2023-03-10T10:52:48.853Z,92.90
2023-03-10T10:55:34.724Z,92.90
2023-03-10T10:58:06.614Z,93.00
2023-03-10T11:00:37.414Z,93.10
2023-03-10T11:03:26.907Z,93.30
2023-03-10T11:05:56.339Z,93.30
2023-03-10T11:08:37.398Z,93.20
2023-03-10T11:11:36.444Z,93.30
2023-03-10T11:15:01.856Z,93.30
2023-03-10T11:17:33.394Z,93.50
2023-03-10T11:20:27.741Z,93.70
2023-03-10T11:23:20.293Z,93.80
2023-03-10T11:26:22.504Z,93.90
2023-03-10T11:28:54.124Z,93.90
2023-03-10T11:31:41.813Z,93.90
2023-03-10T11:34:30.329Z,93.90
2023-03-10T11:37:31.202Z,93.80
2023-03-10T11:40:28.406Z,93.70
2023-03-10T11:43:05.998Z,93.60
2023-03-10T11:45:54.626Z,93.90
2023-03-10T11:48:49.904Z,93.80
2023-03-10T11:51:29.137Z,93.70
2023-03-10T11:53:59.085Z,93.60
2023-03-10T11:56:27.589Z,93.60
2023-03-10T11:59:15.126Z,93.50
2023-03-10T12:02:19.392Z,93.50
2023-03-10T12:04:58.223Z,93.50
2023-03-10T12:07:38.166Z,93.60
2023-03-10T12:10:16.819Z,93.50
2023-03-10T12:12:46.920Z,93.40
2023-03-10T12:15:25.494Z,93.50
2023-03-10T12:17:54.187Z,93.60
2023-03-10T12:20:20.991Z,93.70
2023-03-10T12:22:53.187Z,93.50
2023-03-10T12:25:29.149Z,93.60
2023-03-10T12:28:24.333Z,93.60
2023-03-10T12:31:02.000Z,93.80
2023-03-10T12:33:33.645Z,93.70
2023-03-10T12:36:32.608Z,93.70
2023-03-10T12:39:28.081Z,93.70
2023-03-10T12:42:00.914Z,93.70
2023-03-10T12:44:48.707Z,93.70
2023-03-10T12:47:36.086Z,93.70
2023-03-10T12:50:22.695Z,93.60
2023-03-10T12:52:59.529Z,93.60
2023-03-10T12:55:28.138Z,93.50
2023-03-10T12:58:15.611Z,93.40
2023-03-10T13:00:55.856Z,93.50
2023-03-10T13:03:46.911Z,93.50
2023-03-10T13:06:13.734Z,93.60
2023-03-10T13:08:59.855Z,93.70
2023-03-10T13:11:48.696Z,93.70
2023-03-10T13:14:19.918Z,93.70
2023-03-10T13:17:00.584Z,93.70
2023-03-10T13:19:31.530Z,93.70
2023-03-10T13:21:58.994Z,93.70
2023-03-10T13:24:29.807Z,93.70
2023-03-10T13:27:19.477Z,93.70
2023-03-10T13:30:22.626Z,93.90
2023-03-10T13:32:56.715Z,93.90
2023-03-10T13:35:36.182Z,94.00
2023-03-10T13:38:11.874Z,94.00
2023-03-10T13:40:43.352Z,93.90
2023-03-10T13:43:37.565Z,93.60
2023-03-10T13:46:15.804Z,93.40
2023-03-10T13:48:43.408Z,93.10
2023-03-10T13:51:22.517Z,93.10
2023-03-10T13:53:53.236Z,93.20
2023-03-10T13:56:29.039Z,93.30
2023-03-10T13:59:02.419Z,93.30
2023-03-10T14:01:35.137Z,93.20
2023-03-10T14:04:08.799Z,93.30
2023-03-10T14:06:37.245Z,93.30
2023-03-10T14:09:24.757Z,93.30
2023-03-10T14:11:52.208Z,93.20
2023-03-10T14:14:34.240Z,93.30
2023-03-10T14:17:06.955Z,93.40
2023-03-10T14:19:48.443Z,93.50
2023-03-10T14:22:33.093Z,93.80
2023-03-10T14:25:01.824Z,93.40
2023-03-10T14:27:28.800Z,93.40
2023-03-10T14:30:01.415Z,93.40
2023-03-10T14:32:29.055Z,93.30
2023-03-10T14:34:56.046Z,93.20
2023-03-10T14:37:23.878Z,93.10
2023-03-10T14:39:50.767Z,93.30
2023-03-10T14:42:25.208Z,93.70
2023-03-10T14:44:53.300Z,93.40
2023-03-10T14:47:20.521Z,93.60
2023-03-10T14:49:47.509Z,93.60
2023-03-10T14:52:17.394Z,93.60
2023-03-10T14:54:44.446Z,93.60
2023-03-10T14:57:13.883Z,93.70
2023-03-10T14:59:41.030Z,93.80
2023-03-10T15:02:25.389Z,93.80
2023-03-10T15:04:52.433Z,94.00
2023-03-10T15:07:19.459Z,93.90
2023-03-10T15:09:46.472Z,94.00
2023-03-10T15:12:17.795Z,94.10
2023-03-10T15:14:52.496Z,94.10
2023-03-10T15:17:20.238Z,94.20
2023-03-10T15:19:47.140Z,94.20
2023-03-10T15:22:14.026Z,94.20
2023-03-10T15:24:41.007Z,94.20
2023-03-10T15:27:11.310Z,94.20
2023-03-10T15:29:38.231Z,94.30
2023-03-10T15:32:05.499Z,94.20
2023-03-10T15:34:32.546Z,94.10
2023-03-10T15:37:01.035Z,94.10
2023-03-10T15:39:31.828Z,94.00
2023-03-10T15:41:59.715Z,93.80
2023-03-10T15:44:26.616Z,93.90
2023-03-10T15:46:54.905Z,94.00
2023-03-10T15:49:22.004Z,94.00
2023-03-10T15:51:48.962Z,94.10
2023-03-10T15:54:15.871Z,94.10
2023-03-10T15:56:42.850Z,94.10
2023-03-10T15:59:09.966Z,94.20
2023-03-10T16:01:37.064Z,94.20
2023-03-10T16:04:05.857Z,94.20
2023-03-10T16:06:34.320Z,94.20
2023-03-10T16:09:01.442Z,94.30
2023-03-10T16:11:28.391Z,94.30
2023-03-10T16:13:55.319Z,94.30
2023-03-10T16:16:23.650Z,94.30
2023-03-10T16:18:51.220Z,94.30
2023-03-10T16:21:19.080Z,94.40
2023-03-10T16:23:46.466Z,94.40
2023-03-10T16:26:17.245Z,94.40
2023-03-10T16:28:52.528Z,94.50
2023-03-10T16:31:23.335Z,94.50
2023-03-10T16:33:51.488Z,94.60
2023-03-10T16:36:25.330Z,94.60
2023-03-10T16:38:53.748Z,94.60
2023-03-10T16:41:21.626Z,94.60
2023-03-10T16:43:48.602Z,94.70
2023-03-10T16:46:21.513Z,94.70
2023-03-10T16:48:48.905Z,94.70
2023-03-10T16:51:35.357Z,94.80
2023-03-10T16:54:05.375Z,94.90
2023-03-10T16:56:35.744Z,95.00
2023-03-10T16:59:02.653Z,94.90
2023-03-10T17:01:29.610Z,94.90
2023-03-10T17:03:56.729Z,95.00
2023-03-10T17:06:28.924Z,95.10
2023-03-10T17:08:56.812Z,95.30
2023-03-10T17:11:30.451Z,95.30
2023-03-10T17:14:01.584Z,95.30
2023-03-10T17:16:30.861Z,95.20
2023-03-10T17:19:01.185Z,95.60
2023-03-10T17:21:33.314Z,95.40
2023-03-10T17:24:00.247Z,95.40
2023-03-10T17:26:27.158Z,95.30
2023-03-10T17:28:54.064Z,95.30
2023-03-10T17:31:30.941Z,95.40
2023-03-10T17:34:04.585Z,95.80
2023-03-10T17:36:31.862Z,95.50
2023-03-10T17:39:01.928Z,95.50
2023-03-10T17:41:30.925Z,95.50
2023-03-10T17:43:57.814Z,95.50
2023-03-10T17:46:28.389Z,95.40
2023-03-10T17:48:56.300Z,95.50
2023-03-10T17:51:26.661Z,95.50
2023-03-10T17:53:54.419Z,95.50
2023-03-10T17:56:22.127Z,95.50
2023-03-10T17:58:50.055Z,95.60
2023-03-10T18:01:21.601Z,95.50
2023-03-10T18:03:48.814Z,95.50
2023-03-10T18:06:19.689Z,95.50
2023-03-10T18:08:46.989Z,95.50
2023-03-10T18:11:14.480Z,95.40
2023-03-10T18:13:41.964Z,95.40
2023-03-10T18:16:23.327Z,95.40
2023-03-10T18:18:50.279Z,95.40
2023-03-10T18:21:18.717Z,95.40
2023-03-10T18:23:46.530Z,95.50
2023-03-10T18:26:17.473Z,95.40
2023-03-10T18:28:44.646Z,95.50
2023-03-10T18:31:21.596Z,95.50
2023-03-10T18:33:48.979Z,95.50
2023-03-10T18:36:17.972Z,95.50
2023-03-10T18:38:47.105Z,95.60
2023-03-10T18:41:14.631Z,95.50
2023-03-10T18:43:41.549Z,95.60
2023-03-10T18:46:08.510Z,95.60
2023-03-10T18:48:35.486Z,95.60
2023-03-10T18:51:02.966Z,95.60
2023-03-10T18:53:29.864Z,95.80
2023-03-10T18:55:58.915Z,95.80
2023-03-10T18:58:26.882Z,95.90
2023-03-10T19:00:53.824Z,95.90
2023-03-10T19:03:20.724Z,95.80
2023-03-10T19:05:53.702Z,95.80
2023-03-10T19:08:22.210Z,95.90
2023-03-10T19:10:58.089Z,95.80
2023-03-10T19:13:28.164Z,95.90
2023-03-10T19:15:56.107Z,95.90
2023-03-10T19:18:24.068Z,95.90
2023-03-10T19:20:51.290Z,96.00
2023-03-10T19:23:18.273Z,95.90
2023-03-10T19:25:45.170Z,95.80
2023-03-10T19:28:12.104Z,95.90
2023-03-10T19:30:42.793Z,95.90
2023-03-10T19:33:10.855Z,96.00
2023-03-10T19:35:38.230Z,95.90
2023-03-10T19:38:05.528Z,96.00
2023-03-10T19:40:32.766Z,96.10
2023-03-10T19:42:59.813Z,96.00
2023-03-10T19:45:26.831Z,96.00
2023-03-10T19:47:57.826Z,96.10
2023-03-10T19:50:25.490Z,96.20
2023-03-10T19:52:52.606Z,96.20
2023-03-10T19:55:23.976Z,96.10
2023-03-10T19:57:53.952Z,96.10
2023-03-10T20:00:30.983Z,96.10
2023-03-10T20:02:58.519Z,96.20
2023-03-10T20:05:26.773Z,96.30
2023-03-10T20:07:53.907Z,96.20
2023-03-10T20:10:21.101Z,96.30
2023-03-10T20:12:51.088Z,96.20
2023-03-10T20:15:18.364Z,96.20
2023-03-10T20:17:45.648Z,96.30
2023-03-10T20:20:15.172Z,96.20
2023-03-10T20:22:45.517Z,96.20
2023-03-10T20:25:17.241Z,96.50
2023-03-10T20:27:45.251Z,96.20
2023-03-10T20:30:18.774Z,96.20
2023-03-10T20:32:45.976Z,96.20
2023-03-10T20:35:13.910Z,96.20
2023-03-10T20:37:41.993Z,96.20
2023-03-10T20:40:13.562Z,96.20
2023-03-10T20:42:41.238Z,96.20
2023-03-10T20:45:10.305Z,96.20
2023-03-10T20:47:37.788Z,96.20
2023-03-10T20:50:07.590Z,96.10
2023-03-10T20:52:36.590Z,96.10
2023-03-10T20:55:06.528Z,96.00
2023-03-10T20:57:34.685Z,96.10
2023-03-10T21:00:01.918Z,96.00
2023-03-10T21:02:29.014Z,96.00
2023-03-10T21:04:56.007Z,96.00
2023-03-10T21:07:22.896Z,96.00
2023-03-10T21:09:49.817Z,95.90
2023-03-10T21:12:18.627Z,96.00
2023-03-10T21:14:45.979Z,96.00
2023-03-10T21:17:13.058Z,96.00
2023-03-10T21:19:40.020Z,96.00
2023-03-10T21:22:06.920Z,95.90
2023-03-10T21:24:34.119Z,95.80
2023-03-10T21:27:01.219Z,95.90
2023-03-10T21:29:28.126Z,95.80
2023-03-10T21:31:55.033Z,95.80
2023-03-10T21:34:21.939Z,95.70
2023-03-10T21:36:48.798Z,95.80
2023-03-10T21:39:16.100Z,95.80
2023-03-10T21:41:42.999Z,95.80
2023-03-10T21:44:11.047Z,95.80
2023-03-10T21:46:37.977Z,95.80
2023-03-10T21:49:05.034Z,95.80
2023-03-10T21:51:34.621Z,95.80
2023-03-10T21:54:03.146Z,95.80
2023-03-10T21:56:30.113Z,95.90
2023-03-10T21:58:57.552Z,95.90
2023-03-10T22:01:24.766Z,95.90
2023-03-10T22:03:51.657Z,95.90
2023-03-10T22:06:18.560Z,96.00
2023-03-10T22:08:45.457Z,96.10
2023-03-10T22:11:13.030Z,96.10
2023-03-10T22:13:40.367Z,96.10
2023-03-10T22:16:10.600Z,96.10
2023-03-10T22:18:37.991Z,96.10
2023-03-10T22:21:05.328Z,96.10
2023-03-10T22:23:32.190Z,96.10
2023-03-10T22:25:59.090Z,96.10
2023-03-10T22:28:26.004Z,96.10
2023-03-10T22:30:52.910Z,96.20
2023-03-10T22:33:19.994Z,96.10
2023-03-10T22:35:51.853Z,96.10
2023-03-10T22:38:20.502Z,96.10
2023-03-10T22:40:48.056Z,96.10
2023-03-10T22:43:15.181Z,96.10
2023-03-10T22:45:42.085Z,96.00
2023-03-10T22:48:08.959Z,96.00
2023-03-10T22:50:43.651Z,96.00
2023-03-10T22:53:19.150Z,96.00
2023-03-10T22:55:47.862Z,95.90
2023-03-10T22:58:16.212Z,95.90
2023-03-10T23:00:43.782Z,95.90
2023-03-10T23:03:11.690Z,96.00
2023-03-10T23:05:38.733Z,95.90
2023-03-10T23:08:06.973Z,95.90
2023-03-10T23:10:35.639Z,95.90
2023-03-10T23:13:06.319Z,96.20
2023-03-10T23:15:36.721Z,95.80
2023-03-10T23:18:05.047Z,95.80
2023-03-10T23:20:36.608Z,95.80
2023-03-10T23:23:05.409Z,95.80
2023-03-10T23:25:35.096Z,95.70
2023-03-10T23:28:02.901Z,95.80
2023-03-10T23:30:30.203Z,95.80
2023-03-10T23:32:57.549Z,95.80
2023-03-10T23:35:31.201Z,95.80
2023-03-10T23:38:00.186Z,95.80
2023-03-10T23:40:30.000Z,95.90
2023-03-10T23:42:59.327Z,95.80
2023-03-10T23:45:28.958Z,96.00
2023-03-10T23:47:57.870Z,96.00
2023-03-10T23:50:37.493Z,96.10
2023-03-10T23:53:06.296Z,96.20
2023-03-10T23:55:37.217Z,96.30
2023-03-10T23:58:05.113Z,96.50
